sensor_id;sensor_type;location;lat;lon;timestamp;pressure;altitude;pressure_sealevel;temperature;humidity
12468;BME280;57850;52.922;6.256;2023-07-28T00:01:58;99056.81;;;22.02;100.00
12468;BME280;57850;52.922;6.256;2023-07-28T00:04:24;99069.81;;;21.89;100.00
12468;BME280;57850;52.922;6.256;2023-07-28T00:06:51;99040.84;;;22.10;100.00
12468;BME280;57850;52.922;6.256;2023-07-28T00:09:18;99066.63;;;22.02;100.00
12468;BME280;57850;52.922;6.256;2023-07-28T00:11:45;99071.25;;;22.08;100.00
12468;BME280;57850;52.922;6.256;2023-07-28T00:14:12;99054.44;;;22.15;100.00
12468;BME280;57850;52.922;6.256;2023-07-28T00:16:38;99076.28;;;21.95;100.00
12468;BME280;57850;52.922;6.256;2023-07-28T00:19:06;99065.25;;;22.06;100.00
12468;BME280;57850;52.922;6.256;2023-07-28T00:21:33;99064.22;;;22.15;100.00
12468;BME280;57850;52.922;6.256;2023-07-28T00:23:59;99057.22;;;22.22;100.00
12468;BME280;57850;52.922;6.256;2023-07-28T00:26:26;99092.84;;;22.05;100.00
12468;BME280;57850;52.922;6.256;2023-07-28T00:28:53;99084.25;;;21.95;100.00
12468;BME280;57850;52.922;6.256;2023-07-28T00:31:20;99065.41;;;22.12;100.00
12468;BME280;57850;52.922;6.256;2023-07-28T00:33:46;99103.63;;;21.87;100.00
12468;BME280;57850;52.922;6.256;2023-07-28T00:36:14;99054.06;;;21.79;100.00
12468;BME280;57850;52.922;6.256;2023-07-28T00:38:44;99046.56;;;22.30;100.00
12468;BME280;57850;52.922;6.256;2023-07-28T00:41:10;99087.63;;;22.19;100.00
12468;BME280;57850;52.922;6.256;2023-07-28T00:43:37;99085.75;;;21.89;100.00
12468;BME280;57850;52.922;6.256;2023-07-28T00:46:03;99057.50;;;21.88;100.00
12468;BME280;57850;52.922;6.256;2023-07-28T00:48:30;99014.69;;;21.91;100.00
12468;BME280;57850;52.922;6.256;2023-07-28T00:50:57;99026.22;;;22.14;100.00
12468;BME280;57850;52.922;6.256;2023-07-28T00:53:25;99041.19;;;22.07;100.00
12468;BME280;57850;52.922;6.256;2023-07-28T00:55:52;99076.75;;;21.98;100.00
12468;BME280;57850;52.922;6.256;2023-07-28T00:58:19;99101.31;;;22.08;100.00
12468;BME280;57850;52.922;6.256;2023-07-28T01:00:45;99084.41;;;21.85;100.00
12468;BME280;57850;52.922;6.256;2023-07-28T01:03:12;99062.13;;;22.02;100.00
12468;BME280;57850;52.922;6.256;2023-07-28T01:05:44;99019.03;;;22.23;100.00
12468;BME280;57850;52.922;6.256;2023-07-28T01:08:17;99066.59;;;22.10;100.00
12468;BME280;57850;52.922;6.256;2023-07-28T01:10:48;99072.09;;;22.00;100.00
12468;BME280;57850;52.922;6.256;2023-07-28T01:13:14;99045.97;;;22.12;100.00
12468;BME280;57850;52.922;6.256;2023-07-28T01:15:41;99052.16;;;22.04;100.00
12468;BME280;57850;52.922;6.256;2023-07-28T01:18:08;99048.06;;;22.32;100.00
12468;BME280;57850;52.922;6.256;2023-07-28T01:20:35;99064.56;;;22.12;100.00
12468;BME280;57850;52.922;6.256;2023-07-28T01:23:08;99083.50;;;22.17;100.00
12468;BME280;57850;52.922;6.256;2023-07-28T01:25:46;99024.94;;;22.02;100.00
12468;BME280;57850;52.922;6.256;2023-07-28T01:28:15;98993.19;;;22.09;100.00
12468;BME280;57850;52.922;6.256;2023-07-28T01:30:43;99023.84;;;21.88;100.00
12468;BME280;57850;52.922;6.256;2023-07-28T01:33:09;99038.50;;;22.15;100.00
12468;BME280;57850;52.922;6.256;2023-07-28T01:35:36;99073.59;;;22.33;100.00
12468;BME280;57850;52.922;6.256;2023-07-28T01:38:04;99082.09;;;21.90;100.00
12468;BME280;57850;52.922;6.256;2023-07-28T01:40:30;99042.38;;;22.05;100.00
12468;BME280;57850;52.922;6.256;2023-07-28T01:42:57;99064.41;;;22.13;100.00
12468;BME280;57850;52.922;6.256;2023-07-28T01:45:25;99075.81;;;22.30;100.00
12468;BME280;57850;52.922;6.256;2023-07-28T01:47:52;99098.16;;;22.05;100.00
12468;BME280;57850;52.922;6.256;2023-07-28T01:50:19;99123.50;;;22.15;100.00
12468;BME280;57850;52.922;6.256;2023-07-28T01:52:46;99140.44;;;22.22;100.00
12468;BME280;57850;52.922;6.256;2023-07-28T01:55:12;99147.56;;;22.22;100.00
12468;BME280;57850;52.922;6.256;2023-07-28T01:57:40;99144.47;;;22.02;100.00
12468;BME280;57850;52.922;6.256;2023-07-28T02:00:07;99118.38;;;22.14;100.00
12468;BME280;57850;52.922;6.256;2023-07-28T02:02:36;99108.63;;;22.45;100.00
12468;BME280;57850;52.922;6.256;2023-07-28T02:05:02;99183.75;;;22.31;100.00
12468;BME280;57850;52.922;6.256;2023-07-28T02:07:29;99171.72;;;21.96;100.00
12468;BME280;57850;52.922;6.256;2023-07-28T02:09:56;99116.22;;;22.17;100.00
12468;BME280;57850;52.922;6.256;2023-07-28T02:12:22;99127.59;;;22.34;100.00
12468;BME280;57850;52.922;6.256;2023-07-28T02:14:50;99163.22;;;22.09;100.00
12468;BME280;57850;52.922;6.256;2023-07-28T02:17:17;99164.72;;;22.11;100.00
12468;BME280;57850;52.922;6.256;2023-07-28T02:19:45;99127.44;;;22.27;100.00
12468;BME280;57850;52.922;6.256;2023-07-28T02:22:12;99171.34;;;22.15;100.00
12468;BME280;57850;52.922;6.256;2023-07-28T02:24:39;99171.16;;;22.25;100.00
12468;BME280;57850;52.922;6.256;2023-07-28T02:27:06;99162.34;;;22.24;100.00
12468;BME280;57850;52.922;6.256;2023-07-28T02:29:32;99183.16;;;22.60;100.00
12468;BME280;57850;52.922;6.256;2023-07-28T02:31:59;99219.59;;;22.51;100.00
12468;BME280;57850;52.922;6.256;2023-07-28T02:34:25;99239.06;;;22.27;100.00
12468;BME280;57850;52.922;6.256;2023-07-28T02:36:53;99225.84;;;22.11;100.00
12468;BME280;57850;52.922;6.256;2023-07-28T02:39:21;99198.41;;;22.27;100.00
12468;BME280;57850;52.922;6.256;2023-07-28T02:41:47;99191.25;;;22.19;100.00
12468;BME280;57850;52.922;6.256;2023-07-28T02:44:14;99206.19;;;22.28;100.00
12468;BME280;57850;52.922;6.256;2023-07-28T02:46:40;99218.16;;;22.32;100.00
12468;BME280;57850;52.922;6.256;2023-07-28T02:49:07;99208.19;;;22.18;100.00
12468;BME280;57850;52.922;6.256;2023-07-28T02:51:33;99213.69;;;22.17;100.00
12468;BME280;57850;52.922;6.256;2023-07-28T02:54:01;99213.00;;;22.31;100.00
12468;BME280;57850;52.922;6.256;2023-07-28T02:56:28;99254.22;;;22.11;100.00
12468;BME280;57850;52.922;6.256;2023-07-28T02:58:59;99207.34;;;22.34;100.00
12468;BME280;57850;52.922;6.256;2023-07-28T03:01:26;99220.47;;;22.35;100.00
12468;BME280;57850;52.922;6.256;2023-07-28T03:03:53;99217.34;;;22.16;100.00
12468;BME280;57850;52.922;6.256;2023-07-28T03:06:20;99184.47;;;22.09;100.00
12468;BME280;57850;52.922;6.256;2023-07-28T03:08:47;99189.94;;;22.23;100.00
12468;BME280;57850;52.922;6.256;2023-07-28T03:11:14;99197.91;;;22.15;100.00
12468;BME280;57850;52.922;6.256;2023-07-28T03:13:41;99161.41;;;22.17;100.00
12468;BME280;57850;52.922;6.256;2023-07-28T03:16:07;99173.88;;;22.01;100.00
12468;BME280;57850;52.922;6.256;2023-07-28T03:18:34;99142.84;;;22.01;100.00
12468;BME280;57850;52.922;6.256;2023-07-28T03:21:01;99154.06;;;22.19;100.00
12468;BME280;57850;52.922;6.256;2023-07-28T03:23:28;99172.38;;;22.14;100.00
12468;BME280;57850;52.922;6.256;2023-07-28T03:25:55;99174.34;;;22.12;100.00
12468;BME280;57850;52.922;6.256;2023-07-28T03:28:23;99174.38;;;22.04;100.00
12468;BME280;57850;52.922;6.256;2023-07-28T03:30:50;99143.00;;;21.92;100.00
12468;BME280;57850;52.922;6.256;2023-07-28T03:33:17;99150.63;;;22.03;100.00
12468;BME280;57850;52.922;6.256;2023-07-28T03:35:44;99131.38;;;22.01;100.00
12468;BME280;57850;52.922;6.256;2023-07-28T03:38:10;99148.28;;;22.08;100.00
12468;BME280;57850;52.922;6.256;2023-07-28T03:40:37;99161.91;;;22.05;100.00
12468;BME280;57850;52.922;6.256;2023-07-28T03:43:03;99168.50;;;22.25;100.00
12468;BME280;57850;52.922;6.256;2023-07-28T03:45:31;99160.28;;;21.96;100.00
12468;BME280;57850;52.922;6.256;2023-07-28T03:47:58;99141.50;;;21.97;100.00
12468;BME280;57850;52.922;6.256;2023-07-28T03:50:25;99160.91;;;22.14;100.00
12468;BME280;57850;52.922;6.256;2023-07-28T03:52:53;99169.06;;;22.04;100.00
12468;BME280;57850;52.922;6.256;2023-07-28T03:55:20;99150.28;;;22.06;100.00
12468;BME280;57850;52.922;6.256;2023-07-28T03:57:47;99139.50;;;22.07;100.00
12468;BME280;57850;52.922;6.256;2023-07-28T04:00:14;99155.25;;;22.17;100.00
12468;BME280;57850;52.922;6.256;2023-07-28T04:02:42;99169.03;;;22.20;100.00
12468;BME280;57850;52.922;6.256;2023-07-28T04:05:08;99201.09;;;22.11;100.00
12468;BME280;57850;52.922;6.256;2023-07-28T04:07:35;99163.59;;;21.98;100.00
12468;BME280;57850;52.922;6.256;2023-07-28T04:10:01;99157.56;;;22.12;100.00
12468;BME280;57850;52.922;6.256;2023-07-28T04:12:28;99165.34;;;22.21;100.00
12468;BME280;57850;52.922;6.256;2023-07-28T04:14:55;99180.69;;;21.95;100.00
12468;BME280;57850;52.922;6.256;2023-07-28T04:17:22;99131.47;;;22.23;100.00
12468;BME280;57850;52.922;6.256;2023-07-28T04:19:50;99145.78;;;22.06;100.00
12468;BME280;57850;52.922;6.256;2023-07-28T04:22:16;99133.53;;;22.05;100.00
12468;BME280;57850;52.922;6.256;2023-07-28T04:24:47;99142.13;;;22.15;100.00
12468;BME280;57850;52.922;6.256;2023-07-28T04:27:13;99150.28;;;22.06;100.00
12468;BME280;57850;52.922;6.256;2023-07-28T04:29:41;99146.78;;;22.13;100.00
12468;BME280;57850;52.922;6.256;2023-07-28T04:32:07;99154.75;;;22.13;100.00
12468;BME280;57850;52.922;6.256;2023-07-28T04:34:34;99147.63;;;22.14;100.00
12468;BME280;57850;52.922;6.256;2023-07-28T04:37:02;99183.78;;;22.23;100.00
12468;BME280;57850;52.922;6.256;2023-07-28T04:39:29;99218.03;;;22.10;100.00
12468;BME280;57850;52.922;6.256;2023-07-28T04:41:56;99203.91;;;22.09;100.00
12468;BME280;57850;52.922;6.256;2023-07-28T04:44:22;99202.59;;;22.05;100.00
12468;BME280;57850;52.922;6.256;2023-07-28T04:46:49;99206.03;;;22.30;100.00
12468;BME280;57850;52.922;6.256;2023-07-28T04:49:16;99199.13;;;22.05;100.00
12468;BME280;57850;52.922;6.256;2023-07-28T04:51:42;99188.75;;;22.18;100.00
12468;BME280;57850;52.922;6.256;2023-07-28T04:54:10;99231.84;;;21.89;100.00
12468;BME280;57850;52.922;6.256;2023-07-28T04:56:37;99148.78;;;22.03;100.00
12468;BME280;57850;52.922;6.256;2023-07-28T04:59:04;99137.03;;;21.98;100.00
12468;BME280;57850;52.922;6.256;2023-07-28T05:01:33;99139.50;;;21.99;100.00
12468;BME280;57850;52.922;6.256;2023-07-28T05:03:59;99139.84;;;22.04;100.00
12468;BME280;57850;52.922;6.256;2023-07-28T05:06:26;99174.16;;;22.22;100.00
12468;BME280;57850;52.922;6.256;2023-07-28T05:08:53;99184.47;;;22.17;100.00
12468;BME280;57850;52.922;6.256;2023-07-28T05:11:21;99224.00;;;22.20;100.00
12468;BME280;57850;52.922;6.256;2023-07-28T05:13:47;99228.09;;;22.30;100.00
12468;BME280;57850;52.922;6.256;2023-07-28T05:16:14;99245.59;;;22.17;100.00
12468;BME280;57850;52.922;6.256;2023-07-28T05:18:40;99283.56;;;22.50;100.00
12468;BME280;57850;52.922;6.256;2023-07-28T05:21:08;99303.03;;;22.18;100.00
12468;BME280;57850;52.922;6.256;2023-07-28T05:23:34;99286.09;;;22.35;100.00
12468;BME280;57850;52.922;6.256;2023-07-28T05:26:01;99320.63;;;22.35;100.00
12468;BME280;57850;52.922;6.256;2023-07-28T05:28:29;99358.84;;;22.42;100.00
12468;BME280;57850;52.922;6.256;2023-07-28T05:31:03;99349.69;;;22.53;100.00
12468;BME280;57850;52.922;6.256;2023-07-28T05:33:30;99393.56;;;22.49;100.00
12468;BME280;57850;52.922;6.256;2023-07-28T05:36:00;99381.25;;;22.56;100.00
12468;BME280;57850;52.922;6.256;2023-07-28T05:38:27;99346.53;;;22.41;100.00
12468;BME280;57850;52.922;6.256;2023-07-28T05:40:57;99336.94;;;22.24;100.00
12468;BME280;57850;52.922;6.256;2023-07-28T05:43:23;99327.06;;;22.65;100.00
12468;BME280;57850;52.922;6.256;2023-07-28T05:45:51;99371.63;;;22.63;100.00
12468;BME280;57850;52.922;6.256;2023-07-28T05:48:18;99414.53;;;22.68;100.00
12468;BME280;57850;52.922;6.256;2023-07-28T05:50:45;99437.97;;;22.72;100.00
12468;BME280;57850;52.922;6.256;2023-07-28T05:53:11;99379.44;;;22.48;100.00
12468;BME280;57850;52.922;6.256;2023-07-28T05:55:39;99352.69;;;22.66;100.00
12468;BME280;57850;52.922;6.256;2023-07-28T05:58:05;99412.69;;;22.52;100.00
12468;BME280;57850;52.922;6.256;2023-07-28T06:00:32;99412.88;;;22.67;100.00
12468;BME280;57850;52.922;6.256;2023-07-28T06:03:00;99442.09;;;22.51;100.00
12468;BME280;57850;52.922;6.256;2023-07-28T06:05:27;99428.47;;;22.86;100.00
12468;BME280;57850;52.922;6.256;2023-07-28T06:07:53;99495.28;;;23.15;100.00
12468;BME280;57850;52.922;6.256;2023-07-28T06:10:20;99517.56;;;23.06;100.00
12468;BME280;57850;52.922;6.256;2023-07-28T06:12:46;99533.88;;;22.95;100.00
12468;BME280;57850;52.922;6.256;2023-07-28T06:15:13;99543.84;;;22.93;100.00
12468;BME280;57850;52.922;6.256;2023-07-28T06:17:39;99579.59;;;22.90;100.00
12468;BME280;57850;52.922;6.256;2023-07-28T06:20:09;99574.97;;;22.92;100.00
12468;BME280;57850;52.922;6.256;2023-07-28T06:22:36;99670.44;;;23.04;100.00
12468;BME280;57850;52.922;6.256;2023-07-28T06:25:03;99706.38;;;23.08;100.00
12468;BME280;57850;52.922;6.256;2023-07-28T06:27:30;99750.63;;;23.17;100.00
12468;BME280;57850;52.922;6.256;2023-07-28T06:29:57;99797.94;;;22.89;100.00
12468;BME280;57850;52.922;6.256;2023-07-28T06:32:24;99767.72;;;22.64;100.00
12468;BME280;57850;52.922;6.256;2023-07-28T06:34:51;99782.75;;;22.73;100.00
12468;BME280;57850;52.922;6.256;2023-07-28T06:37:19;99846.56;;;22.99;100.00
12468;BME280;57850;52.922;6.256;2023-07-28T06:39:46;99856.78;;;22.60;100.00
12468;BME280;57850;52.922;6.256;2023-07-28T06:42:13;99826.56;;;22.95;100.00
12468;BME280;57850;52.922;6.256;2023-07-28T06:44:39;99832.41;;;22.99;100.00
12468;BME280;57850;52.922;6.256;2023-07-28T06:47:06;99802.81;;;23.02;100.00
12468;BME280;57850;52.922;6.256;2023-07-28T06:49:33;99803.28;;;22.97;100.00
12468;BME280;57850;52.922;6.256;2023-07-28T06:51:59;99820.84;;;23.16;100.00
12468;BME280;57850;52.922;6.256;2023-07-28T06:54:27;99831.53;;;23.24;100.00
12468;BME280;57850;52.922;6.256;2023-07-28T06:56:54;99829.34;;;23.69;100.00
12468;BME280;57850;52.922;6.256;2023-07-28T06:59:20;99892.09;;;23.64;100.00
12468;BME280;57850;52.922;6.256;2023-07-28T07:01:47;99884.66;;;23.33;100.00
12468;BME280;57850;52.922;6.256;2023-07-28T07:04:14;99867.50;;;23.94;100.00
12468;BME280;57850;52.922;6.256;2023-07-28T07:06:41;99973.81;;;23.55;100.00
12468;BME280;57850;52.922;6.256;2023-07-28T07:09:07;99999.75;;;23.53;100.00
12468;BME280;57850;52.922;6.256;2023-07-28T07:11:35;100007.63;;;23.63;100.00
12468;BME280;57850;52.922;6.256;2023-07-28T07:14:02;100074.97;;;23.73;100.00
12468;BME280;57850;52.922;6.256;2023-07-28T07:16:30;100066.56;;;23.93;100.00
12468;BME280;57850;52.922;6.256;2023-07-28T07:18:56;100143.69;;;23.69;100.00
12468;BME280;57850;52.922;6.256;2023-07-28T07:21:23;100163.03;;;23.71;100.00
12468;BME280;57850;52.922;6.256;2023-07-28T07:23:50;100120.03;;;23.92;100.00
12468;BME280;57850;52.922;6.256;2023-07-28T07:26:16;100159.91;;;24.02;100.00
12468;BME280;57850;52.922;6.256;2023-07-28T07:28:44;100190.94;;;23.85;100.00
12468;BME280;57850;52.922;6.256;2023-07-28T07:31:12;100134.25;;;23.14;100.00
12468;BME280;57850;52.922;6.256;2023-07-28T07:33:39;100150.50;;;23.89;100.00
12468;BME280;57850;52.922;6.256;2023-07-28T07:36:11;100165.78;;;24.39;100.00
12468;BME280;57850;52.922;6.256;2023-07-28T07:38:38;100215.19;;;24.51;100.00
12468;BME280;57850;52.922;6.256;2023-07-28T07:41:06;100286.53;;;24.23;100.00
12468;BME280;57850;52.922;6.256;2023-07-28T07:43:33;100231.50;;;24.14;100.00
12468;BME280;57850;52.922;6.256;2023-07-28T07:46:01;100223.22;;;24.25;100.00
12468;BME280;57850;52.922;6.256;2023-07-28T07:48:28;100270.44;;;24.33;100.00
12468;BME280;57850;52.922;6.256;2023-07-28T07:50:55;100252.34;;;24.19;100.00
12468;BME280;57850;52.922;6.256;2023-07-28T07:53:22;100278.56;;;24.06;100.00
12468;BME280;57850;52.922;6.256;2023-07-28T07:55:49;100231.84;;;24.19;100.00
12468;BME280;57850;52.922;6.256;2023-07-28T07:58:16;100221.66;;;24.15;100.00
12468;BME280;57850;52.922;6.256;2023-07-28T08:00:42;100264.13;;;24.68;100.00
12468;BME280;57850;52.922;6.256;2023-07-28T08:03:11;100311.19;;;24.77;100.00
12468;BME280;57850;52.922;6.256;2023-07-28T08:05:38;100351.91;;;24.79;100.00
12468;BME280;57850;52.922;6.256;2023-07-28T08:08:05;100381.06;;;24.72;100.00
12468;BME280;57850;52.922;6.256;2023-07-28T08:10:33;100419.63;;;24.95;100.00
12468;BME280;57850;52.922;6.256;2023-07-28T08:12:59;100363.09;;;24.57;100.00
12468;BME280;57850;52.922;6.256;2023-07-28T08:15:26;100353.22;;;25.00;100.00
12468;BME280;57850;52.922;6.256;2023-07-28T08:17:52;100395.59;;;24.95;100.00
12468;BME280;57850;52.922;6.256;2023-07-28T08:20:20;100439.22;;;25.46;100.00
12468;BME280;57850;52.922;6.256;2023-07-28T08:22:47;100464.69;;;24.98;100.00
12468;BME280;57850;52.922;6.256;2023-07-28T08:25:13;100467.91;;;25.10;100.00
12468;BME280;57850;52.922;6.256;2023-07-28T08:27:40;100512.53;;;25.43;100.00
12468;BME280;57850;52.922;6.256;2023-07-28T08:30:08;100525.16;;;25.08;100.00
12468;BME280;57850;52.922;6.256;2023-07-28T08:32:34;100522.31;;;24.83;100.00
12468;BME280;57850;52.922;6.256;2023-07-28T08:35:01;100516.13;;;24.65;100.00
12468;BME280;57850;52.922;6.256;2023-07-28T08:37:30;100476.56;;;24.43;100.00
12468;BME280;57850;52.922;6.256;2023-07-28T08:39:57;100450.00;;;24.59;100.00
12468;BME280;57850;52.922;6.256;2023-07-28T08:42:24;100449.53;;;24.81;100.00
12468;BME280;57850;52.922;6.256;2023-07-28T08:44:51;100467.47;;;24.89;100.00
12468;BME280;57850;52.922;6.256;2023-07-28T08:47:18;100446.13;;;24.71;100.00
12468;BME280;57850;52.922;6.256;2023-07-28T08:49:45;100461.28;;;24.71;100.00
12468;BME280;57850;52.922;6.256;2023-07-28T08:52:15;100483.56;;;24.62;100.00
12468;BME280;57850;52.922;6.256;2023-07-28T08:54:44;100507.53;;;25.15;100.00
12468;BME280;57850;52.922;6.256;2023-07-28T08:57:11;100533.03;;;24.91;100.00
12468;BME280;57850;52.922;6.256;2023-07-28T08:59:38;100571.31;;;24.65;100.00
12468;BME280;57850;52.922;6.256;2023-07-28T09:02:09;100576.97;;;25.66;100.00
12468;BME280;57850;52.922;6.256;2023-07-28T09:04:35;100606.22;;;26.27;100.00
12468;BME280;57850;52.922;6.256;2023-07-28T09:07:04;100653.13;;;25.88;100.00
12468;BME280;57850;52.922;6.256;2023-07-28T09:09:32;100671.97;;;25.17;100.00
12468;BME280;57850;52.922;6.256;2023-07-28T09:12:00;100661.72;;;25.13;100.00
12468;BME280;57850;52.922;6.256;2023-07-28T09:14:27;100636.94;;;25.64;100.00
12468;BME280;57850;52.922;6.256;2023-07-28T09:16:54;100693.69;;;26.69;100.00
12468;BME280;57850;52.922;6.256;2023-07-28T09:19:21;100700.50;;;26.63;100.00
12468;BME280;57850;52.922;6.256;2023-07-28T09:21:57;100751.72;;;26.08;100.00
12468;BME280;57850;52.922;6.256;2023-07-28T09:24:30;100774.72;;;25.58;100.00
12468;BME280;57850;52.922;6.256;2023-07-28T09:26:58;100747.38;;;25.46;100.00
12468;BME280;57850;52.922;6.256;2023-07-28T09:29:27;100785.47;;;25.48;100.00
12468;BME280;57850;52.922;6.256;2023-07-28T09:32:03;100773.53;;;25.78;100.00
12468;BME280;57850;52.922;6.256;2023-07-28T09:34:30;100796.63;;;25.79;100.00
12468;BME280;57850;52.922;6.256;2023-07-28T09:37:00;100823.06;;;25.37;100.00
12468;BME280;57850;52.922;6.256;2023-07-28T09:39:27;100838.25;;;25.64;100.00
12468;BME280;57850;52.922;6.256;2023-07-28T09:41:54;100820.75;;;26.05;100.00
12468;BME280;57850;52.922;6.256;2023-07-28T09:44:24;100833.44;;;25.85;100.00
12468;BME280;57850;52.922;6.256;2023-07-28T09:46:53;100825.31;;;25.42;100.00
12468;BME280;57850;52.922;6.256;2023-07-28T09:49:21;100812.81;;;25.60;100.00
12468;BME280;57850;52.922;6.256;2023-07-28T09:51:49;100776.81;;;25.90;100.00
12468;BME280;57850;52.922;6.256;2023-07-28T09:54:23;100783.03;;;26.42;100.00
12468;BME280;57850;52.922;6.256;2023-07-28T09:56:55;100807.88;;;27.28;100.00
12468;BME280;57850;52.922;6.256;2023-07-28T09:59:24;100841.22;;;27.33;100.00
12468;BME280;57850;52.922;6.256;2023-07-28T10:01:58;100849.84;;;27.53;100.00
12468;BME280;57850;52.922;6.256;2023-07-28T10:04:25;100859.44;;;27.80;100.00
12468;BME280;57850;52.922;6.256;2023-07-28T10:06:53;100848.22;;;27.84;100.00
12468;BME280;57850;52.922;6.256;2023-07-28T10:09:22;100840.16;;;27.18;100.00
12468;BME280;57850;52.922;6.256;2023-07-28T10:11:49;100839.19;;;26.85;100.00
12468;BME280;57850;52.922;6.256;2023-07-28T10:14:25;100837.72;;;26.91;100.00
12468;BME280;57850;52.922;6.256;2023-07-28T10:16:53;100805.44;;;27.58;100.00
12468;BME280;57850;52.922;6.256;2023-07-28T10:19:21;100838.66;;;27.24;100.00
12468;BME280;57850;52.922;6.256;2023-07-28T10:21:58;100863.97;;;26.36;100.00
12468;BME280;57850;52.922;6.256;2023-07-28T10:24:49;100830.94;;;27.12;100.00
12468;BME280;57850;52.922;6.256;2023-07-28T10:27:28;100847.84;;;27.55;100.00
12468;BME280;57850;52.922;6.256;2023-07-28T10:29:56;100804.47;;;27.09;100.00
12468;BME280;57850;52.922;6.256;2023-07-28T10:32:25;100821.19;;;27.61;100.00
12468;BME280;57850;52.922;6.256;2023-07-28T10:35:01;100847.88;;;28.36;100.00
12468;BME280;57850;52.922;6.256;2023-07-28T10:37:32;100872.72;;;27.97;100.00
12468;BME280;57850;52.922;6.256;2023-07-28T10:40:21;100854.22;;;29.14;100.00
12468;BME280;57850;52.922;6.256;2023-07-28T10:42:48;100867.13;;;29.80;100.00
12468;BME280;57850;52.922;6.256;2023-07-28T10:45:15;100880.38;;;27.76;100.00
12468;BME280;57850;52.922;6.256;2023-07-28T10:47:41;100880.88;;;27.72;100.00
12468;BME280;57850;52.922;6.256;2023-07-28T10:50:11;100862.78;;;27.65;100.00
12468;BME280;57850;52.922;6.256;2023-07-28T10:52:39;100862.44;;;27.77;100.00
12468;BME280;57850;52.922;6.256;2023-07-28T10:55:12;100851.13;;;26.65;100.00
12468;BME280;57850;52.922;6.256;2023-07-28T10:57:40;100849.50;;;27.06;100.00
12468;BME280;57850;52.922;6.256;2023-07-28T11:00:08;100821.13;;;28.75;100.00
12468;BME280;57850;52.922;6.256;2023-07-28T11:02:37;100851.34;;;29.85;100.00
12468;BME280;57850;52.922;6.256;2023-07-28T11:05:07;100856.16;;;30.50;100.00
12468;BME280;57850;52.922;6.256;2023-07-28T11:07:35;100890.81;;;28.68;100.00
12468;BME280;57850;52.922;6.256;2023-07-28T11:10:02;100905.22;;;27.94;100.00
12468;BME280;57850;52.922;6.256;2023-07-28T11:12:31;100884.38;;;27.64;100.00
12468;BME280;57850;52.922;6.256;2023-07-28T11:14:58;100867.41;;;27.47;100.00
12468;BME280;57850;52.922;6.256;2023-07-28T11:17:26;100873.53;;;27.90;100.00
12468;BME280;57850;52.922;6.256;2023-07-28T11:19:53;100858.91;;;27.76;100.00
12468;BME280;57850;52.922;6.256;2023-07-28T11:22:19;100871.34;;;27.85;100.00
12468;BME280;57850;52.922;6.256;2023-07-28T11:24:50;100882.59;;;28.53;100.00
12468;BME280;57850;52.922;6.256;2023-07-28T11:27:17;100859.34;;;30.31;100.00
12468;BME280;57850;52.922;6.256;2023-07-28T11:29:44;100900.88;;;28.74;100.00
12468;BME280;57850;52.922;6.256;2023-07-28T11:32:10;100909.91;;;27.92;100.00
12468;BME280;57850;52.922;6.256;2023-07-28T11:34:37;100879.34;;;28.82;100.00
12468;BME280;57850;52.922;6.256;2023-07-28T11:37:06;100867.13;;;29.80;100.00
12468;BME280;57850;52.922;6.256;2023-07-28T11:39:34;100884.19;;;29.42;100.00
12468;BME280;57850;52.922;6.256;2023-07-28T11:42:04;100891.63;;;29.23;100.00
12468;BME280;57850;52.922;6.256;2023-07-28T11:44:31;100909.38;;;29.02;100.00
12468;BME280;57850;52.922;6.256;2023-07-28T11:46:57;100905.59;;;29.66;100.00
12468;BME280;57850;52.922;6.256;2023-07-28T11:49:25;100933.09;;;28.58;100.00
12468;BME280;57850;52.922;6.256;2023-07-28T11:51:54;100928.69;;;27.84;100.00
12468;BME280;57850;52.922;6.256;2023-07-28T11:54:25;100904.88;;;27.89;100.00
12468;BME280;57850;52.922;6.256;2023-07-28T11:56:55;100880.91;;;28.68;100.00
12468;BME280;57850;52.922;6.256;2023-07-28T11:59:23;100884.28;;;29.56;100.00
12468;BME280;57850;52.922;6.256;2023-07-28T12:01:54;100892.06;;;29.74;100.00
12468;BME280;57850;52.922;6.256;2023-07-28T12:04:22;100904.34;;;29.46;100.00
12468;BME280;57850;52.922;6.256;2023-07-28T12:07:06;100905.44;;;28.49;100.00
12468;BME280;57850;52.922;6.256;2023-07-28T12:09:46;100907.03;;;27.78;100.00
12468;BME280;57850;52.922;6.256;2023-07-28T12:12:14;100904.00;;;27.56;100.00
12468;BME280;57850;52.922;6.256;2023-07-28T12:14:42;100903.75;;;28.48;100.00
12468;BME280;57850;52.922;6.256;2023-07-28T12:17:12;100908.31;;;29.11;100.00
12468;BME280;57850;52.922;6.256;2023-07-28T12:19:41;100885.41;;;30.53;100.00
12468;BME280;57850;52.922;6.256;2023-07-28T12:22:07;100928.88;;;29.04;100.00
12468;BME280;57850;52.922;6.256;2023-07-28T12:24:34;100931.50;;;29.12;100.00
12468;BME280;57850;52.922;6.256;2023-07-28T12:27:02;100937.44;;;28.99;100.00
12468;BME280;57850;52.922;6.256;2023-07-28T12:29:28;100922.31;;;29.45;100.00
12468;BME280;57850;52.922;6.256;2023-07-28T12:31:56;100896.25;;;30.82;100.00
12468;BME280;57850;52.922;6.256;2023-07-28T12:34:23;100909.28;;;30.41;100.00
12468;BME280;57850;52.922;6.256;2023-07-28T12:36:49;100917.88;;;30.14;100.00
12468;BME280;57850;52.922;6.256;2023-07-28T12:39:16;100916.75;;;30.54;100.00
12468;BME280;57850;52.922;6.256;2023-07-28T12:41:42;100940.69;;;29.72;100.00
12468;BME280;57850;52.922;6.256;2023-07-28T12:44:09;100929.97;;;29.95;100.00
12468;BME280;57850;52.922;6.256;2023-07-28T12:46:36;100927.84;;;29.52;100.00
12468;BME280;57850;52.922;6.256;2023-07-28T12:49:04;100917.53;;;29.94;100.00